sensor_id;sensor_type;location;lat;lon;timestamp;temperature;humidity
9527;DHT22;4802;51.494;6.770;2023-06-22T00:02:01;22.70;1.00
9527;DHT22;4802;51.494;6.770;2023-06-22T00:04:30;22.70;1.00
9527;DHT22;4802;51.494;6.770;2023-06-22T00:07:01;22.60;1.00
9527;DHT22;4802;51.494;6.770;2023-06-22T00:09:38;22.60;1.00
9527;DHT22;4802;51.494;6.770;2023-06-22T00:12:22;22.70;1.00
9527;DHT22;4802;51.494;6.770;2023-06-22T00:15:08;22.60;1.00
9527;DHT22;4802;51.494;6.770;2023-06-22T00:17:39;22.60;1.00
9527;DHT22;4802;51.494;6.770;2023-06-22T00:20:10;22.60;1.00
9527;DHT22;4802;51.494;6.770;2023-06-22T00:22:44;22.60;1.00
9527;DHT22;4802;51.494;6.770;2023-06-22T00:25:15;22.50;1.00
9527;DHT22;4802;51.494;6.770;2023-06-22T00:27:44;22.60;1.00
9527;DHT22;4802;51.494;6.770;2023-06-22T00:30:16;22.50;1.00
9527;DHT22;4802;51.494;6.770;2023-06-22T00:32:46;22.50;1.00
9527;DHT22;4802;51.494;6.770;2023-06-22T00:35:16;22.50;1.00
9527;DHT22;4802;51.494;6.770;2023-06-22T00:37:45;22.50;1.00
9527;DHT22;4802;51.494;6.770;2023-06-22T00:40:16;22.50;1.00
9527;DHT22;4802;51.494;6.770;2023-06-22T00:42:48;22.50;1.00
9527;DHT22;4802;51.494;6.770;2023-06-22T00:45:17;22.50;1.00
9527;DHT22;4802;51.494;6.770;2023-06-22T00:48:10;22.80;1.00
9527;DHT22;4802;51.494;6.770;2023-06-22T00:50:40;22.40;1.00
9527;DHT22;4802;51.494;6.770;2023-06-22T00:53:10;22.50;1.00
9527;DHT22;4802;51.494;6.770;2023-06-22T00:55:43;22.40;1.00
9527;DHT22;4802;51.494;6.770;2023-06-22T00:58:14;22.40;1.00
9527;DHT22;4802;51.494;6.770;2023-06-22T01:00:42;22.30;1.00
9527;DHT22;4802;51.494;6.770;2023-06-22T01:03:12;22.30;1.00
9527;DHT22;4802;51.494;6.770;2023-06-22T01:05:40;22.30;1.00
9527;DHT22;4802;51.494;6.770;2023-06-22T01:08:18;22.30;1.00
9527;DHT22;4802;51.494;6.770;2023-06-22T01:10:53;22.20;1.00
9527;DHT22;4802;51.494;6.770;2023-06-22T01:13:46;22.10;1.00
9527;DHT22;4802;51.494;6.770;2023-06-22T01:16:23;22.10;1.00
9527;DHT22;4802;51.494;6.770;2023-06-22T01:18:54;22.00;1.00
9527;DHT22;4802;51.494;6.770;2023-06-22T01:21:27;22.00;1.00
9527;DHT22;4802;51.494;6.770;2023-06-22T01:24:06;22.00;1.00
9527;DHT22;4802;51.494;6.770;2023-06-22T01:26:47;21.90;1.00
9527;DHT22;4802;51.494;6.770;2023-06-22T01:29:24;22.00;1.00
9527;DHT22;4802;51.494;6.770;2023-06-22T01:31:59;21.90;1.00
9527;DHT22;4802;51.494;6.770;2023-06-22T01:34:29;21.90;1.00
9527;DHT22;4802;51.494;6.770;2023-06-22T01:36:59;21.90;1.00
9527;DHT22;4802;51.494;6.770;2023-06-22T01:39:29;21.80;1.00
9527;DHT22;4802;51.494;6.770;2023-06-22T01:41:59;21.80;1.00
9527;DHT22;4802;51.494;6.770;2023-06-22T01:44:30;21.80;1.00
9527;DHT22;4802;51.494;6.770;2023-06-22T01:46:59;21.80;1.00
9527;DHT22;4802;51.494;6.770;2023-06-22T01:49:28;21.80;1.00
9527;DHT22;4802;51.494;6.770;2023-06-22T01:51:57;21.80;1.00
9527;DHT22;4802;51.494;6.770;2023-06-22T01:54:26;21.80;1.00
9527;DHT22;4802;51.494;6.770;2023-06-22T01:56:55;21.70;1.00
9527;DHT22;4802;51.494;6.770;2023-06-22T01:59:29;21.80;1.00
9527;DHT22;4802;51.494;6.770;2023-06-22T02:02:04;21.80;1.00
9527;DHT22;4802;51.494;6.770;2023-06-22T02:04:40;21.80;1.00
9527;DHT22;4802;51.494;6.770;2023-06-22T02:07:13;21.80;1.00
9527;DHT22;4802;51.494;6.770;2023-06-22T02:09:45;21.60;1.00
9527;DHT22;4802;51.494;6.770;2023-06-22T02:12:17;21.80;1.00
9527;DHT22;4802;51.494;6.770;2023-06-22T02:14:48;21.80;1.00
9527;DHT22;4802;51.494;6.770;2023-06-22T02:17:19;21.80;1.00
9527;DHT22;4802;51.494;6.770;2023-06-22T02:19:48;21.80;1.00
9527;DHT22;4802;51.494;6.770;2023-06-22T02:22:16;21.80;1.00
9527;DHT22;4802;51.494;6.770;2023-06-22T02:24:51;21.80;1.00
9527;DHT22;4802;51.494;6.770;2023-06-22T02:27:20;21.80;1.00
9527;DHT22;4802;51.494;6.770;2023-06-22T02:29:49;21.80;1.00
9527;DHT22;4802;51.494;6.770;2023-06-22T02:32:19;21.80;1.00
9527;DHT22;4802;51.494;6.770;2023-06-22T02:34:49;21.70;1.00
9527;DHT22;4802;51.494;6.770;2023-06-22T02:37:19;21.70;1.00
9527;DHT22;4802;51.494;6.770;2023-06-22T02:39:47;21.70;1.00
9527;DHT22;4802;51.494;6.770;2023-06-22T02:42:16;21.70;1.00
9527;DHT22;4802;51.494;6.770;2023-06-22T02:44:47;21.70;1.00
9527;DHT22;4802;51.494;6.770;2023-06-22T02:47:16;21.60;1.00
9527;DHT22;4802;51.494;6.770;2023-06-22T02:49:46;21.60;1.00
9527;DHT22;4802;51.494;6.770;2023-06-22T02:52:15;21.60;1.00
9527;DHT22;4802;51.494;6.770;2023-06-22T02:54:44;21.70;1.00
9527;DHT22;4802;51.494;6.770;2023-06-22T02:57:13;21.60;1.00
9527;DHT22;4802;51.494;6.770;2023-06-22T02:59:42;21.60;1.00
9527;DHT22;4802;51.494;6.770;2023-06-22T03:02:14;21.10;1.00
9527;DHT22;4802;51.494;6.770;2023-06-22T03:04:42;21.50;1.00
9527;DHT22;4802;51.494;6.770;2023-06-22T03:07:27;21.60;1.00
9527;DHT22;4802;51.494;6.770;2023-06-22T03:10:10;21.60;1.00
9527;DHT22;4802;51.494;6.770;2023-06-22T03:12:40;21.60;1.00
9527;DHT22;4802;51.494;6.770;2023-06-22T03:15:23;21.60;1.00
9527;DHT22;4802;51.494;6.770;2023-06-22T03:18:06;21.50;1.00
9527;DHT22;4802;51.494;6.770;2023-06-22T03:20:49;21.40;1.00
9527;DHT22;4802;51.494;6.770;2023-06-22T03:23:33;21.40;1.00
9527;DHT22;4802;51.494;6.770;2023-06-22T03:26:02;21.40;1.00
9527;DHT22;4802;51.494;6.770;2023-06-22T03:28:32;21.10;1.00
9527;DHT22;4802;51.494;6.770;2023-06-22T03:31:00;21.50;1.00
9527;DHT22;4802;51.494;6.770;2023-06-22T03:33:57;21.30;1.00
9527;DHT22;4802;51.494;6.770;2023-06-22T03:52:04;21.10;1.00
9527;DHT22;4802;51.494;6.770;2023-06-22T03:54:34;21.10;1.00
9527;DHT22;4802;51.494;6.770;2023-06-22T03:57:04;21.10;1.00
9527;DHT22;4802;51.494;6.770;2023-06-22T03:59:47;21.10;1.00
9527;DHT22;4802;51.494;6.770;2023-06-22T04:02:18;21.10;1.00
9527;DHT22;4802;51.494;6.770;2023-06-22T04:04:48;21.20;1.00
9527;DHT22;4802;51.494;6.770;2023-06-22T04:07:18;21.10;1.00
9527;DHT22;4802;51.494;6.770;2023-06-22T04:10:01;21.60;1.00
9527;DHT22;4802;51.494;6.770;2023-06-22T04:12:31;22.10;1.00
9527;DHT22;4802;51.494;6.770;2023-06-22T04:15:03;22.70;1.00
9527;DHT22;4802;51.494;6.770;2023-06-22T04:17:33;23.10;1.00
9527;DHT22;4802;51.494;6.770;2023-06-22T04:20:03;23.60;1.00
9527;DHT22;4802;51.494;6.770;2023-06-22T04:22:47;23.60;1.00
9527;DHT22;4802;51.494;6.770;2023-06-22T04:25:18;23.60;1.00
9527;DHT22;4802;51.494;6.770;2023-06-22T04:27:48;23.50;1.00
9527;DHT22;4802;51.494;6.770;2023-06-22T04:30:33;23.50;1.00
9527;DHT22;4802;51.494;6.770;2023-06-22T04:33:18;23.70;1.00
9527;DHT22;4802;51.494;6.770;2023-06-22T04:35:51;23.70;1.00
9527;DHT22;4802;51.494;6.770;2023-06-22T04:38:50;23.90;1.00
9527;DHT22;4802;51.494;6.770;2023-06-22T04:41:33;23.90;1.00
9527;DHT22;4802;51.494;6.770;2023-06-22T04:44:23;23.50;1.00
9527;DHT22;4802;51.494;6.770;2023-06-22T04:46:53;23.50;1.00
9527;DHT22;4802;51.494;6.770;2023-06-22T04:49:31;23.40;1.00
9527;DHT22;4802;51.494;6.770;2023-06-22T05:33:45;22.30;1.00
9527;DHT22;4802;51.494;6.770;2023-06-22T05:36:42;22.20;1.00
9527;DHT22;4802;51.494;6.770;2023-06-22T05:39:14;22.20;1.00
9527;DHT22;4802;51.494;6.770;2023-06-22T05:41:45;22.20;1.00
9527;DHT22;4802;51.494;6.770;2023-06-22T05:44:41;22.30;1.00
9527;DHT22;4802;51.494;6.770;2023-06-22T05:47:25;22.20;1.00
9527;DHT22;4802;51.494;6.770;2023-06-22T05:57:49;22.20;1.00
9527;DHT22;4802;51.494;6.770;2023-06-22T06:00:38;22.30;1.00
9527;DHT22;4802;51.494;6.770;2023-06-22T06:03:08;21.90;1.00
9527;DHT22;4802;51.494;6.770;2023-06-22T06:05:52;22.00;1.00
9527;DHT22;4802;51.494;6.770;2023-06-22T06:08:36;22.00;1.00
9527;DHT22;4802;51.494;6.770;2023-06-22T06:11:20;22.00;1.00
9527;DHT22;4802;51.494;6.770;2023-06-22T06:14:06;22.10;1.00
9527;DHT22;4802;51.494;6.770;2023-06-22T06:17:03;21.80;1.00
9527;DHT22;4802;51.494;6.770;2023-06-22T06:42:45;21.50;1.00
9527;DHT22;4802;51.494;6.770;2023-06-22T06:45:29;21.50;27.20
9527;DHT22;4802;51.494;6.770;2023-06-22T06:48:12;21.40;48.40
9527;DHT22;4802;51.494;6.770;2023-06-22T06:50:55;21.40;17.30
9527;DHT22;4802;51.494;6.770;2023-06-22T06:53:38;21.40;58.90
9527;DHT22;4802;51.494;6.770;2023-06-22T06:56:21;21.30;19.50
9527;DHT22;4802;51.494;6.770;2023-06-22T07:02:27;20.90;55.00
9527;DHT22;4802;51.494;6.770;2023-06-22T07:04:58;21.30;30.10
9527;DHT22;4802;51.494;6.770;2023-06-22T07:07:27;21.40;99.90
9527;DHT22;4802;51.494;6.770;2023-06-22T07:10:10;21.50;99.90
9527;DHT22;4802;51.494;6.770;2023-06-22T07:12:53;21.40;99.90
9527;DHT22;4802;51.494;6.770;2023-06-22T07:15:24;21.50;3.90
9527;DHT22;4802;51.494;6.770;2023-06-22T07:18:23;21.50;8.80
9527;DHT22;4802;51.494;6.770;2023-06-22T07:21:06;21.40;1.00
9527;DHT22;4802;51.494;6.770;2023-06-22T07:23:35;21.20;13.20
9527;DHT22;4802;51.494;6.770;2023-06-22T07:26:05;21.20;25.00
9527;DHT22;4802;51.494;6.770;2023-06-22T08:14:22;21.60;14.30
9527;DHT22;4802;51.494;6.770;2023-06-22T08:17:05;21.70;5.70
9527;DHT22;4802;51.494;6.770;2023-06-22T08:19:40;21.80;1.00
9527;DHT22;4802;51.494;6.770;2023-06-22T08:22:36;21.90;1.00
9527;DHT22;4802;51.494;6.770;2023-06-22T08:25:20;21.90;1.00
9527;DHT22;4802;51.494;6.770;2023-06-22T08:27:50;22.10;1.00
9527;DHT22;4802;51.494;6.770;2023-06-22T09:07:36;22.50;1.00
9527;DHT22;4802;51.494;6.770;2023-06-22T09:10:33;22.50;1.00
9527;DHT22;4802;51.494;6.770;2023-06-22T09:13:06;22.70;1.00
9527;DHT22;4802;51.494;6.770;2023-06-22T09:15:35;22.80;1.00
9527;DHT22;4802;51.494;6.770;2023-06-22T09:18:04;22.80;1.00
9527;DHT22;4802;51.494;6.770;2023-06-22T09:20:55;22.90;1.00
9527;DHT22;4802;51.494;6.770;2023-06-22T09:23:27;22.90;1.00
9527;DHT22;4802;51.494;6.770;2023-06-22T09:26:03;23.00;1.00
9527;DHT22;4802;51.494;6.770;2023-06-22T09:28:50;22.90;1.00
9527;DHT22;4802;51.494;6.770;2023-06-22T09:31:30;22.90;1.00
9527;DHT22;4802;51.494;6.770;2023-06-22T09:34:01;22.90;1.00
9527;DHT22;4802;51.494;6.770;2023-06-22T09:36:41;22.90;1.00
9527;DHT22;4802;51.494;6.770;2023-06-22T09:39:13;22.70;1.00
9527;DHT22;4802;51.494;6.770;2023-06-22T09:41:49;22.60;1.00
9527;DHT22;4802;51.494;6.770;2023-06-22T09:44:21;22.80;1.00
9527;DHT22;4802;51.494;6.770;2023-06-22T09:46:56;22.80;1.00
9527;DHT22;4802;51.494;6.770;2023-06-22T09:49:52;22.90;1.00
9527;DHT22;4802;51.494;6.770;2023-06-22T09:52:31;23.00;1.00
9527;DHT22;4802;51.494;6.770;2023-06-22T09:55:16;23.20;1.00
9527;DHT22;4802;51.494;6.770;2023-06-22T09:57:45;23.40;1.00
9527;DHT22;4802;51.494;6.770;2023-06-22T10:00:17;23.70;1.00
9527;DHT22;4802;51.494;6.770;2023-06-22T10:02:49;24.00;1.00
9527;DHT22;4802;51.494;6.770;2023-06-22T10:05:20;24.40;1.00
9527;DHT22;4802;51.494;6.770;2023-06-22T10:07:49;24.70;1.00
9527;DHT22;4802;51.494;6.770;2023-06-22T10:10:34;24.90;1.00
9527;DHT22;4802;51.494;6.770;2023-06-22T10:13:11;25.70;1.00
9527;DHT22;4802;51.494;6.770;2023-06-22T10:15:44;26.10;1.00
9527;DHT22;4802;51.494;6.770;2023-06-22T10:18:22;26.50;1.00
9527;DHT22;4802;51.494;6.770;2023-06-22T10:21:03;26.80;1.00
9527;DHT22;4802;51.494;6.770;2023-06-22T10:23:32;26.90;1.00
9527;DHT22;4802;51.494;6.770;2023-06-22T10:26:03;26.90;1.00
9527;DHT22;4802;51.494;6.770;2023-06-22T10:28:35;27.00;1.00
9527;DHT22;4802;51.494;6.770;2023-06-22T10:31:05;26.90;1.00
9527;DHT22;4802;51.494;6.770;2023-06-22T10:33:40;27.00;1.00
9527;DHT22;4802;51.494;6.770;2023-06-22T10:36:13;26.90;1.00
9527;DHT22;4802;51.494;6.770;2023-06-22T10:38:44;27.10;1.00
9527;DHT22;4802;51.494;6.770;2023-06-22T10:41:18;27.00;1.00
9527;DHT22;4802;51.494;6.770;2023-06-22T10:43:48;26.90;1.00
9527;DHT22;4802;51.494;6.770;2023-06-22T10:46:25;26.80;1.00
9527;DHT22;4802;51.494;6.770;2023-06-22T10:48:58;26.80;1.00
9527;DHT22;4802;51.494;6.770;2023-06-22T10:51:28;26.70;1.00
9527;DHT22;4802;51.494;6.770;2023-06-22T10:54:02;26.60;1.00
9527;DHT22;4802;51.494;6.770;2023-06-22T10:56:33;26.40;1.00
9527;DHT22;4802;51.494;6.770;2023-06-22T10:59:08;26.10;1.00
9527;DHT22;4802;51.494;6.770;2023-06-22T11:01:37;26.00;1.00
9527;DHT22;4802;51.494;6.770;2023-06-22T11:04:07;25.80;1.00
9527;DHT22;4802;51.494;6.770;2023-06-22T11:06:39;25.90;1.00
9527;DHT22;4802;51.494;6.770;2023-06-22T11:09:18;25.60;1.00
9527;DHT22;4802;51.494;6.770;2023-06-22T11:12:32;25.70;1.00
9527;DHT22;4802;51.494;6.770;2023-06-22T11:16:38;25.60;1.00
9527;DHT22;4802;51.494;6.770;2023-06-22T11:18:50;25.40;1.00
9527;DHT22;4802;51.494;6.770;2023-06-22T11:21:30;25.40;1.00
9527;DHT22;4802;51.494;6.770;2023-06-22T11:24:35;25.20;1.00
9527;DHT22;4802;51.494;6.770;2023-06-22T11:27:07;25.10;1.00
9527;DHT22;4802;51.494;6.770;2023-06-22T11:29:43;25.10;1.00
9527;DHT22;4802;51.494;6.770;2023-06-22T11:32:36;25.20;1.00
9527;DHT22;4802;51.494;6.770;2023-06-22T11:35:18;25.10;1.00
9527;DHT22;4802;51.494;6.770;2023-06-22T11:37:47;24.80;1.00
9527;DHT22;4802;51.494;6.770;2023-06-22T11:40:17;24.70;1.00
9527;DHT22;4802;51.494;6.770;2023-06-22T11:42:53;24.60;1.00
9527;DHT22;4802;51.494;6.770;2023-06-22T11:45:27;24.60;1.00
9527;DHT22;4802;51.494;6.770;2023-06-22T11:48:00;24.50;1.00
9527;DHT22;4802;51.494;6.770;2023-06-22T11:50:35;24.20;1.00
9527;DHT22;4802;51.494;6.770;2023-06-22T11:53:07;23.90;1.00
9527;DHT22;4802;51.494;6.770;2023-06-22T11:55:41;24.00;1.00
9527;DHT22;4802;51.494;6.770;2023-06-22T11:58:19;24.00;99.90
9527;DHT22;4802;51.494;6.770;2023-06-22T12:00:50;23.80;1.00
9527;DHT22;4802;51.494;6.770;2023-06-22T12:03:21;23.70;1.00
9527;DHT22;4802;51.494;6.770;2023-06-22T12:06:06;23.60;42.10
9527;DHT22;4802;51.494;6.770;2023-06-22T12:08:35;23.40;95.30
9527;DHT22;4802;51.494;6.770;2023-06-22T12:11:15;23.30;99.90
9527;DHT22;4802;51.494;6.770;2023-06-22T12:14:12;23.20;99.90
9527;DHT22;4802;51.494;6.770;2023-06-22T12:17:06;23.20;99.90
9527;DHT22;4802;51.494;6.770;2023-06-22T12:19:53;23.20;1.00
9527;DHT22;4802;51.494;6.770;2023-06-22T12:22:50;23.20;1.00
9527;DHT22;4802;51.494;6.770;2023-06-22T12:25:55;23.20;1.00
9527;DHT22;4802;51.494;6.770;2023-06-22T12:29:03;23.20;1.00
9527;DHT22;4802;51.494;6.770;2023-06-22T12:32:29;23.30;1.00
9527;DHT22;4802;51.494;6.770;2023-06-22T12:35:17;23.40;99.90
9527;DHT22;4802;51.494;6.770;2023-06-22T12:38:02;23.80;99.90
9527;DHT22;4802;51.494;6.770;2023-06-22T12:40:34;24.20;99.90
9527;DHT22;4802;51.494;6.770;2023-06-22T12:43:57;24.40;99.90
9527;DHT22;4802;51.494;6.770;2023-06-22T12:46:58;24.50;99.90
9527;DHT22;4802;51.494;6.770;2023-06-22T13:03:52;24.30;99.90
9527;DHT22;4802;51.494;6.770;2023-06-22T13:06:25;24.60;99.90
9527;DHT22;4802;51.494;6.770;2023-06-22T13:09:07;24.50;99.90
9527;DHT22;4802;51.494;6.770;2023-06-22T13:11:53;24.80;99.90
9527;DHT22;4802;51.494;6.770;2023-06-22T13:14:40;24.50;99.90
9527;DHT22;4802;51.494;6.770;2023-06-22T13:17:42;24.50;99.90
9527;DHT22;4802;51.494;6.770;2023-06-22T13:24:11;24.10;99.90
9527;DHT22;4802;51.494;6.770;2023-06-22T13:27:03;24.50;99.90
9527;DHT22;4802;51.494;6.770;2023-06-22T13:34:15;24.00;99.90
9527;DHT22;4802;51.494;6.770;2023-06-22T13:44:59;23.80;99.90
9527;DHT22;4802;51.494;6.770;2023-06-22T13:47:53;23.80;99.90
9527;DHT22;4802;51.494;6.770;2023-06-22T14:01:52;24.20;99.90
9527;DHT22;4802;51.494;6.770;2023-06-22T14:04:25;24.20;99.90
9527;DHT22;4802;51.494;6.770;2023-06-22T14:06:57;24.30;99.90
9527;DHT22;4802;51.494;6.770;2023-06-22T14:09:27;24.40;99.90
9527;DHT22;4802;51.494;6.770;2023-06-22T14:12:23;24.50;99.90
9527;DHT22;4802;51.494;6.770;2023-06-22T14:15:20;24.30;96.50
9527;DHT22;4802;51.494;6.770;2023-06-22T14:18:03;24.50;99.90
9527;DHT22;4802;51.494;6.770;2023-06-22T14:20:49;24.50;74.30
9527;DHT22;4802;51.494;6.770;2023-06-22T14:23:33;24.20;94.80
9527;DHT22;4802;51.494;6.770;2023-06-22T14:26:05;24.20;99.90
9527;DHT22;4802;51.494;6.770;2023-06-22T14:28:39;24.60;99.90
9527;DHT22;4802;51.494;6.770;2023-06-22T14:31:16;24.00;99.90
9527;DHT22;4802;51.494;6.770;2023-06-22T14:33:50;23.90;99.90
9527;DHT22;4802;51.494;6.770;2023-06-22T14:36:22;23.90;99.90
9527;DHT22;4802;51.494;6.770;2023-06-22T14:38:53;23.80;99.90
9527;DHT22;4802;51.494;6.770;2023-06-22T14:41:27;23.60;99.90
9527;DHT22;4802;51.494;6.770;2023-06-22T14:43:56;23.90;99.90
9527;DHT22;4802;51.494;6.770;2023-06-22T14:46:29;23.90;99.90
9527;DHT22;4802;51.494;6.770;2023-06-22T14:49:03;23.90;99.90
9527;DHT22;4802;51.494;6.770;2023-06-22T14:51:46;24.00;99.90
9527;DHT22;4802;51.494;6.770;2023-06-22T14:54:17;23.80;99.90
9527;DHT22;4802;51.494;6.770;2023-06-22T14:56:53;23.70;99.90
9527;DHT22;4802;51.494;6.770;2023-06-22T14:59:25;23.70;99.90
9527;DHT22;4802;51.494;6.770;2023-06-22T15:01:54;23.60;99.90
9527;DHT22;4802;51.494;6.770;2023-06-22T15:04:31;23.50;99.90
9527;DHT22;4802;51.494;6.770;2023-06-22T15:07:06;23.50;99.90
9527;DHT22;4802;51.494;6.770;2023-06-22T15:09:35;23.40;99.90
9527;DHT22;4802;51.494;6.770;2023-06-22T15:12:08;23.30;99.90
9527;DHT22;4802;51.494;6.770;2023-06-22T15:14:50;23.50;99.90
9527;DHT22;4802;51.494;6.770;2023-06-22T15:17:31;23.40;99.90
9527;DHT22;4802;51.494;6.770;2023-06-22T15:20:10;23.50;99.90
9527;DHT22;4802;51.494;6.770;2023-06-22T15:22:44;23.50;99.90
9527;DHT22;4802;51.494;6.770;2023-06-22T15:25:12;23.40;99.90
9527;DHT22;4802;51.494;6.770;2023-06-22T15:27:44;23.40;99.90
9527;DHT22;4802;51.494;6.770;2023-06-22T15:30:16;23.40;99.90
9527;DHT22;4802;51.494;6.770;2023-06-22T15:32:46;23.30;99.90
9527;DHT22;4802;51.494;6.770;2023-06-22T15:35:19;23.30;99.90
9527;DHT22;4802;51.494;6.770;2023-06-22T15:37:49;23.30;99.90
9527;DHT22;4802;51.494;6.770;2023-06-22T15:40:18;23.20;99.90
9527;DHT22;4802;51.494;6.770;2023-06-22T15:42:49;23.10;99.90
9527;DHT22;4802;51.494;6.770;2023-06-22T15:45:20;23.00;99.90
9527;DHT22;4802;51.494;6.770;2023-06-22T15:47:50;23.00;99.90
9527;DHT22;4802;51.494;6.770;2023-06-22T15:50:21;23.00;1.00
9527;DHT22;4802;51.494;6.770;2023-06-22T15:52:54;23.00;1.00
9527;DHT22;4802;51.494;6.770;2023-06-22T15:55:25;23.00;1.00
9527;DHT22;4802;51.494;6.770;2023-06-22T15:57:54;23.00;1.00
9527;DHT22;4802;51.494;6.770;2023-06-22T16:00:23;22.90;1.00
9527;DHT22;4802;51.494;6.770;2023-06-22T16:02:55;22.90;1.00
9527;DHT22;4802;51.494;6.770;2023-06-22T16:05:29;22.90;1.00
9527;DHT22;4802;51.494;6.770;2023-06-22T16:07:58;22.80;1.00
9527;DHT22;4802;51.494;6.770;2023-06-22T16:10:28;22.70;1.00
9527;DHT22;4802;51.494;6.770;2023-06-22T16:12:58;22.70;1.00
9527;DHT22;4802;51.494;6.770;2023-06-22T16:15:29;22.70;1.00
9527;DHT22;4802;51.494;6.770;2023-06-22T16:17:59;22.60;99.90
9527;DHT22;4802;51.494;6.770;2023-06-22T16:20:47;22.50;99.90
9527;DHT22;4802;51.494;6.770;2023-06-22T16:23:24;22.40;99.90
9527;DHT22;4802;51.494;6.770;2023-06-22T16:25:56;22.40;99.90
9527;DHT22;4802;51.494;6.770;2023-06-22T16:28:32;22.40;99.90
9527;DHT22;4802;51.494;6.770;2023-06-22T16:31:06;22.30;1.00
9527;DHT22;4802;51.494;6.770;2023-06-22T16:33:37;22.30;1.00
9527;DHT22;4802;51.494;6.770;2023-06-22T16:36:12;22.30;1.00
9527;DHT22;4802;51.494;6.770;2023-06-22T16:38:42;22.30;99.90
9527;DHT22;4802;51.494;6.770;2023-06-22T16:41:14;22.20;99.90
9527;DHT22;4802;51.494;6.770;2023-06-22T16:43:47;22.20;1.00
9527;DHT22;4802;51.494;6.770;2023-06-22T16:46:18;22.10;1.00
9527;DHT22;4802;51.494;6.770;2023-06-22T16:48:50;22.00;1.00
9527;DHT22;4802;51.494;6.770;2023-06-22T16:51:25;21.90;1.00
9527;DHT22;4802;51.494;6.770;2023-06-22T16:53:57;21.80;97.30
9527;DHT22;4802;51.494;6.770;2023-06-22T16:56:28;21.70;99.90
9527;DHT22;4802;51.494;6.770;2023-06-22T16:59:03;21.70;1.00
9527;DHT22;4802;51.494;6.770;2023-06-22T17:01:44;21.70;99.90
9527;DHT22;4802;51.494;6.770;2023-06-22T17:04:33;21.60;99.90
9527;DHT22;4802;51.494;6.770;2023-06-22T17:07:20;21.20;1.00
9527;DHT22;4802;51.494;6.770;2023-06-22T17:09:55;21.50;1.00
9527;DHT22;4802;51.494;6.770;2023-06-22T17:12:40;21.50;99.90
9527;DHT22;4802;51.494;6.770;2023-06-22T17:15:12;21.30;38.50
9527;DHT22;4802;51.494;6.770;2023-06-22T17:17:56;21.40;1.00
9527;DHT22;4802;51.494;6.770;2023-06-22T17:20:45;22.00;99.90
9527;DHT22;4802;51.494;6.770;2023-06-22T17:23:40;21.80;99.90
9527;DHT22;4802;51.494;6.770;2023-06-22T17:26:25;21.40;99.90
9527;DHT22;4802;51.494;6.770;2023-06-22T17:29:09;21.30;99.90
9527;DHT22;4802;51.494;6.770;2023-06-22T17:31:42;21.30;99.90
9527;DHT22;4802;51.494;6.770;2023-06-22T17:34:14;21.20;1.00
9527;DHT22;4802;51.494;6.770;2023-06-22T17:36:49;21.30;1.00
9527;DHT22;4802;51.494;6.770;2023-06-22T17:39:28;21.20;1.00
9527;DHT22;4802;51.494;6.770;2023-06-22T17:47:26;21.20;1.00
9527;DHT22;4802;51.494;6.770;2023-06-22T17:50:07;21.30;99.90
9527;DHT22;4802;51.494;6.770;2023-06-22T17:52:40;21.20;1.00
9527;DHT22;4802;51.494;6.770;2023-06-22T17:55:14;21.20;14.90
9527;DHT22;4802;51.494;6.770;2023-06-22T17:57:45;21.20;99.90
9527;DHT22;4802;51.494;6.770;2023-06-22T18:00:20;21.20;80.00
9527;DHT22;4802;51.494;6.770;2023-06-22T18:02:50;21.20;99.90
9527;DHT22;4802;51.494;6.770;2023-06-22T18:05:28;21.10;99.90
9527;DHT22;4802;51.494;6.770;2023-06-22T18:08:02;21.00;1.00
9527;DHT22;4802;51.494;6.770;2023-06-22T18:10:35;20.90;99.90
9527;DHT22;4802;51.494;6.770;2023-06-22T18:13:07;20.90;99.90
9527;DHT22;4802;51.494;6.770;2023-06-22T18:15:37;20.80;99.90
9527;DHT22;4802;51.494;6.770;2023-06-22T18:18:11;20.70;1.00
9527;DHT22;4802;51.494;6.770;2023-06-22T18:20:42;20.80;1.00
9527;DHT22;4802;51.494;6.770;2023-06-22T18:23:17;20.70;99.90
9527;DHT22;4802;51.494;6.770;2023-06-22T18:25:57;20.70;99.90
9527;DHT22;4802;51.494;6.770;2023-06-22T18:28:43;20.70;99.90
9527;DHT22;4802;51.494;6.770;2023-06-22T18:31:18;20.70;34.30
9527;DHT22;4802;51.494;6.770;2023-06-22T18:34:13;20.70;94.70
9527;DHT22;4802;51.494;6.770;2023-06-22T18:36:57;20.70;99.90
9527;DHT22;4802;51.494;6.770;2023-06-22T18:39:32;20.70;1.00
9527;DHT22;4802;51.494;6.770;2023-06-22T18:42:08;20.60;99.90
9527;DHT22;4802;51.494;6.770;2023-06-22T18:44:53;20.50;1.00
9527;DHT22;4802;51.494;6.770;2023-06-22T18:47:55;20.50;1.00
9527;DHT22;4802;51.494;6.770;2023-06-22T18:50:38;20.30;90.20
9527;DHT22;4802;51.494;6.770;2023-06-22T18:53:19;20.20;1.00
9527;DHT22;4802;51.494;6.770;2023-06-22T18:56:12;20.10;99.90
9527;DHT22;4802;51.494;6.770;2023-06-22T18:59:11;20.20;99.90
9527;DHT22;4802;51.494;6.770;2023-06-22T19:01:45;20.10;99.90
9527;DHT22;4802;51.494;6.770;2023-06-22T19:04:31;20.10;99.90
9527;DHT22;4802;51.494;6.770;2023-06-22T19:07:56;20.10;99.90
9527;DHT22;4802;51.494;6.770;2023-06-22T19:10:52;20.10;99.90
9527;DHT22;4802;51.494;6.770;2023-06-22T19:13:29;19.80;99.90
9527;DHT22;4802;51.494;6.770;2023-06-22T19:16:06;20.10;99.90
9527;DHT22;4802;51.494;6.770;2023-06-22T19:18:42;20.00;99.90
9527;DHT22;4802;51.494;6.770;2023-06-22T19:21:35;19.80;1.00
9527;DHT22;4802;51.494;6.770;2023-06-22T19:24:28;19.80;99.90
9527;DHT22;4802;51.494;6.770;2023-06-22T19:27:08;19.70;1.00
9527;DHT22;4802;51.494;6.770;2023-06-22T19:29:53;19.20;1.00
9527;DHT22;4802;51.494;6.770;2023-06-22T19:39:12;19.30;99.90
9527;DHT22;4802;51.494;6.770;2023-06-22T19:41:57;19.30;99.90
9527;DHT22;4802;51.494;6.770;2023-06-22T19:44:57;19.10;99.90
9527;DHT22;4802;51.494;6.770;2023-06-22T19:47:31;19.20;99.90
9527;DHT22;4802;51.494;6.770;2023-06-22T19:50:05;19.20;99.90
9527;DHT22;4802;51.494;6.770;2023-06-22T19:52:38;19.30;1.00
9527;DHT22;4802;51.494;6.770;2023-06-22T19:55:12;19.20;1.00
9527;DHT22;4802;51.494;6.770;2023-06-22T19:57:44;19.20;1.00
9527;DHT22;4802;51.494;6.770;2023-06-22T20:00:20;19.20;99.90
9527;DHT22;4802;51.494;6.770;2023-06-22T20:02:53;19.20;1.00
9527;DHT22;4802;51.494;6.770;2023-06-22T20:05:22;19.10;1.00
9527;DHT22;4802;51.494;6.770;2023-06-22T20:07:52;19.60;99.90
9527;DHT22;4802;51.494;6.770;2023-06-22T20:10:24;19.30;1.00
9527;DHT22;4802;51.494;6.770;2023-06-22T20:12:56;19.90;1.00
9527;DHT22;4802;51.494;6.770;2023-06-22T20:15:54;19.20;1.00
9527;DHT22;4802;51.494;6.770;2023-06-22T20:18:27;19.20;99.90
9527;DHT22;4802;51.494;6.770;2023-06-22T20:20:59;19.20;1.00
9527;DHT22;4802;51.494;6.770;2023-06-22T20:23:33;19.20;99.90
9527;DHT22;4802;51.494;6.770;2023-06-22T20:26:07;19.20;99.90
9527;DHT22;4802;51.494;6.770;2023-06-22T20:28:56;19.40;99.90
9527;DHT22;4802;51.494;6.770;2023-06-22T20:31:28;19.80;1.00
9527;DHT22;4802;51.494;6.770;2023-06-22T20:34:03;20.00;99.90
9527;DHT22;4802;51.494;6.770;2023-06-22T20:36:41;20.10;99.90
9527;DHT22;4802;51.494;6.770;2023-06-22T20:39:14;20.30;1.00
9527;DHT22;4802;51.494;6.770;2023-06-22T20:41:47;19.50;1.00
9527;DHT22;4802;51.494;6.770;2023-06-22T20:44:18;20.50;1.00
9527;DHT22;4802;51.494;6.770;2023-06-22T20:47:12;20.10;1.00
9527;DHT22;4802;51.494;6.770;2023-06-22T20:50:06;19.70;31.20
9527;DHT22;4802;51.494;6.770;2023-06-22T20:53:06;19.50;99.90
9527;DHT22;4802;51.494;6.770;2023-06-22T20:55:37;19.30;1.00
9527;DHT22;4802;51.494;6.770;2023-06-22T20:58:34;19.30;1.00
9527;DHT22;4802;51.494;6.770;2023-06-22T21:01:19;19.20;32.60
9527;DHT22;4802;51.494;6.770;2023-06-22T21:04:03;19.10;99.90
9527;DHT22;4802;51.494;6.770;2023-06-22T21:06:48;19.10;99.90
9527;DHT22;4802;51.494;6.770;2023-06-22T21:09:39;19.00;46.50